sensor_id;sensor_type;location;lat;lon;timestamp;pressure;altitude;pressure_sealevel;temperature
49785;BMP280;35679;38.732;-121.358;2023-05-10T00:01:00;100904.97;;;21.77
49785;BMP280;35679;38.732;-121.358;2023-05-10T00:03:49;100906.34;;;21.80
49785;BMP280;35679;38.732;-121.358;2023-05-10T00:06:38;100902.59;;;21.81
49785;BMP280;35679;38.732;-121.358;2023-05-10T00:09:28;100900.50;;;21.83
49785;BMP280;35679;38.732;-121.358;2023-05-10T00:12:18;100905.06;;;21.82
49785;BMP280;35679;38.732;-121.358;2023-05-10T00:15:08;100902.16;;;21.84
49785;BMP280;35679;38.732;-121.358;2023-05-10T00:17:58;100910.56;;;21.87
49785;BMP280;35679;38.732;-121.358;2023-05-10T00:20:47;100911.13;;;21.89
49785;BMP280;35679;38.732;-121.358;2023-05-10T00:23:37;100903.66;;;21.91
49785;BMP280;35679;38.732;-121.358;2023-05-10T00:26:26;100899.09;;;21.92
49785;BMP280;35679;38.732;-121.358;2023-05-10T00:29:16;100907.97;;;21.92
49785;BMP280;35679;38.732;-121.358;2023-05-10T00:32:05;100903.66;;;21.91
49785;BMP280;35679;38.732;-121.358;2023-05-10T00:34:55;100891.03;;;21.92
49785;BMP280;35679;38.732;-121.358;2023-05-10T00:37:44;100888.94;;;21.94
49785;BMP280;35679;38.732;-121.358;2023-05-10T00:40:36;100895.69;;;21.96
49785;BMP280;35679;38.732;-121.358;2023-05-10T00:43:35;100885.75;;;21.97
49785;BMP280;35679;38.732;-121.358;2023-05-10T00:46:24;100887.41;;;21.98
49785;BMP280;35679;38.732;-121.358;2023-05-10T00:49:15;100894.41;;;21.99
49785;BMP280;35679;38.732;-121.358;2023-05-10T00:52:05;100895.47;;;21.98
49785;BMP280;35679;38.732;-121.358;2023-05-10T00:54:54;100889.84;;;21.99
49785;BMP280;35679;38.732;-121.358;2023-05-10T00:57:44;100890.69;;;22.00
49785;BMP280;35679;38.732;-121.358;2023-05-10T01:00:35;100890.91;;;21.98
49785;BMP280;35679;38.732;-121.358;2023-05-10T01:03:26;100886.59;;;21.97
49785;BMP280;35679;38.732;-121.358;2023-05-10T01:06:15;100892.75;;;21.98
49785;BMP280;35679;38.732;-121.358;2023-05-10T01:09:05;100889.03;;;21.99
49785;BMP280;35679;38.732;-121.358;2023-05-10T01:11:55;100892.97;;;22.08
49785;BMP280;35679;38.732;-121.358;2023-05-10T01:14:45;100884.34;;;22.06
49785;BMP280;35679;38.732;-121.358;2023-05-10T01:17:38;100885.41;;;22.05
49785;BMP280;35679;38.732;-121.358;2023-05-10T01:20:35;100881.06;;;22.04
49785;BMP280;35679;38.732;-121.358;2023-05-10T01:26:24;100883.16;;;22.02
49785;BMP280;35679;38.732;-121.358;2023-05-10T01:29:33;100874.91;;;22.03
49785;BMP280;35679;38.732;-121.358;2023-05-10T01:32:34;100882.97;;;22.03
49785;BMP280;35679;38.732;-121.358;2023-05-10T01:35:39;100886.69;;;22.02
49785;BMP280;35679;38.732;-121.358;2023-05-10T01:38:53;100885.66;;;22.03
49785;BMP280;35679;38.732;-121.358;2023-05-10T01:42:08;100881.31;;;22.02
49785;BMP280;35679;38.732;-121.358;2023-05-10T01:45:12;100889.13;;;22.04
49785;BMP280;35679;38.732;-121.358;2023-05-10T01:48:09;100873.03;;;22.04
49785;BMP280;35679;38.732;-121.358;2023-05-10T01:50:59;100885.66;;;22.03
49785;BMP280;35679;38.732;-121.358;2023-05-10T01:53:48;100884.56;;;22.04
49785;BMP280;35679;38.732;-121.358;2023-05-10T01:56:42;100878.16;;;22.05
49785;BMP280;35679;38.732;-121.358;2023-05-10T01:59:34;100877.34;;;22.05
49785;BMP280;35679;38.732;-121.358;2023-05-10T02:02:34;100885.16;;;22.06
49785;BMP280;35679;38.732;-121.358;2023-05-10T02:05:25;100885.41;;;22.05
49785;BMP280;35679;38.732;-121.358;2023-05-10T02:08:17;100892.41;;;22.06
49785;BMP280;35679;38.732;-121.358;2023-05-10T02:11:09;100891.81;;;22.04
49785;BMP280;35679;38.732;-121.358;2023-05-10T02:14:00;100886.69;;;22.02
49785;BMP280;35679;38.732;-121.358;2023-05-10T02:16:54;100899.28;;;22.02
49785;BMP280;35679;38.732;-121.358;2023-05-10T02:19:44;100893.34;;;22.00
49785;BMP280;35679;38.732;-121.358;2023-05-10T02:22:36;100895.47;;;21.98
49785;BMP280;35679;38.732;-121.358;2023-05-10T02:25:27;100908.88;;;21.98
49785;BMP280;35679;38.732;-121.358;2023-05-10T02:28:18;100903.50;;;21.98
49785;BMP280;35679;38.732;-121.358;2023-05-10T02:31:09;100911.00;;;21.96
49785;BMP280;35679;38.732;-121.358;2023-05-10T02:34:01;100911.22;;;21.94
49785;BMP280;35679;38.732;-121.358;2023-05-10T02:36:53;100916.84;;;21.93
49785;BMP280;35679;38.732;-121.358;2023-05-10T02:39:44;100918.47;;;21.94
49785;BMP280;35679;38.732;-121.358;2023-05-10T02:42:37;100918.38;;;21.89
49785;BMP280;35679;38.732;-121.358;2023-05-10T02:45:29;100917.78;;;21.87
49785;BMP280;35679;38.732;-121.358;2023-05-10T02:48:19;100922.78;;;21.83
49785;BMP280;35679;38.732;-121.358;2023-05-10T02:51:08;100926.56;;;21.82
49785;BMP280;35679;38.732;-121.358;2023-05-10T02:54:10;100923.28;;;21.80
49785;BMP280;35679;38.732;-121.358;2023-05-10T02:57:04;100924.91;;;21.81
49785;BMP280;35679;38.732;-121.358;2023-05-10T02:59:54;100932.16;;;21.81
49785;BMP280;35679;38.732;-121.358;2023-05-10T03:02:44;100938.59;;;21.80
49785;BMP280;35679;38.732;-121.358;2023-05-10T03:05:34;100939.63;;;21.79
49785;BMP280;35679;38.732;-121.358;2023-05-10T03:08:24;100951.44;;;21.78
49785;BMP280;35679;38.732;-121.358;2023-05-10T03:19:57;100959.38;;;21.73
49785;BMP280;35679;38.732;-121.358;2023-05-10T03:22:51;100969.53;;;21.71
49785;BMP280;35679;38.732;-121.358;2023-05-10T03:25:42;100978.41;;;21.72
49785;BMP280;35679;38.732;-121.358;2023-05-10T03:28:34;100981.91;;;21.72
49785;BMP280;35679;38.732;-121.358;2023-05-10T03:31:25;100976.53;;;21.72
49785;BMP280;35679;38.732;-121.358;2023-05-10T03:34:15;100979.22;;;21.72
49785;BMP280;35679;38.732;-121.358;2023-05-10T03:37:06;100988.31;;;21.71
49785;BMP280;35679;38.732;-121.358;2023-05-10T03:39:56;100992.06;;;21.70
49785;BMP280;35679;38.732;-121.358;2023-05-10T03:42:45;100990.88;;;21.66
49785;BMP280;35679;38.732;-121.358;2023-05-10T03:45:34;100993.00;;;21.64
49785;BMP280;35679;38.732;-121.358;2023-05-10T03:48:24;100999.41;;;21.63
49785;BMP280;35679;38.732;-121.358;2023-05-10T03:51:14;100996.72;;;21.63
49785;BMP280;35679;38.732;-121.358;2023-05-10T03:54:03;100996.97;;;21.62
49785;BMP280;35679;38.732;-121.358;2023-05-10T03:56:53;101002.53;;;21.60
49785;BMP280;35679;38.732;-121.358;2023-05-10T03:59:43;101002.22;;;21.57
49785;BMP280;35679;38.732;-121.358;2023-05-10T04:02:33;101002.22;;;21.57
49785;BMP280;35679;38.732;-121.358;2023-05-10T04:05:22;101003.50;;;21.54
49785;BMP280;35679;38.732;-121.358;2023-05-10T04:08:13;101000.22;;;21.52
49785;BMP280;35679;38.732;-121.358;2023-05-10T04:11:06;101012.19;;;21.50
49785;BMP280;35679;38.732;-121.358;2023-05-10T04:13:56;101015.34;;;21.47
49785;BMP280;35679;38.732;-121.358;2023-05-10T04:16:45;101025.25;;;21.46
49785;BMP280;35679;38.732;-121.358;2023-05-10T04:19:35;101029.00;;;21.45
49785;BMP280;35679;38.732;-121.358;2023-05-10T04:22:24;101024.09;;;21.42
49785;BMP280;35679;38.732;-121.358;2023-05-10T04:25:13;101023.06;;;21.43
49785;BMP280;35679;38.732;-121.358;2023-05-10T04:28:03;101030.50;;;21.41
49785;BMP280;35679;38.732;-121.358;2023-05-10T04:30:52;101039.84;;;21.39
49785;BMP280;35679;38.732;-121.358;2023-05-10T04:33:41;101037.63;;;21.36
49785;BMP280;35679;38.732;-121.358;2023-05-10T04:36:31;101039.47;;;21.35
49785;BMP280;35679;38.732;-121.358;2023-05-10T04:39:25;101045.88;;;21.34
49785;BMP280;35679;38.732;-121.358;2023-05-10T04:42:14;101039.69;;;21.34
49785;BMP280;35679;38.732;-121.358;2023-05-10T04:45:04;101041.44;;;21.28
49785;BMP280;35679;38.732;-121.358;2023-05-10T04:47:53;101046.22;;;21.26
49785;BMP280;35679;38.732;-121.358;2023-05-10T04:50:43;101051.59;;;21.26
49785;BMP280;35679;38.732;-121.358;2023-05-10T04:53:32;101047.25;;;21.25
49785;BMP280;35679;38.732;-121.358;2023-05-10T04:56:21;101050.41;;;21.22
49785;BMP280;35679;38.732;-121.358;2023-05-10T04:59:11;101052.13;;;21.17
49785;BMP280;35679;38.732;-121.358;2023-05-10T05:02:00;101053.63;;;21.13
49785;BMP280;35679;38.732;-121.358;2023-05-10T05:04:49;101048.03;;;21.14
49785;BMP280;35679;38.732;-121.358;2023-05-10T05:07:39;101052.81;;;21.12
49785;BMP280;35679;38.732;-121.358;2023-05-10T05:10:29;101053.25;;;21.09
49785;BMP280;35679;38.732;-121.358;2023-05-10T05:13:18;101054.28;;;21.08
49785;BMP280;35679;38.732;-121.358;2023-05-10T05:16:08;101054.75;;;21.06
49785;BMP280;35679;38.732;-121.358;2023-05-10T05:18:57;101051.03;;;21.07
49785;BMP280;35679;38.732;-121.358;2023-05-10T05:21:46;101051.28;;;21.05
49785;BMP280;35679;38.732;-121.358;2023-05-10T05:24:36;101050.44;;;21.05
49785;BMP280;35679;38.732;-121.358;2023-05-10T05:27:28;101051.72;;;21.02
49785;BMP280;35679;38.732;-121.358;2023-05-10T05:30:18;101054.88;;;20.99
49785;BMP280;35679;38.732;-121.358;2023-05-10T05:33:07;101049.69;;;20.98
49785;BMP280;35679;38.732;-121.358;2023-05-10T05:35:56;101039.19;;;20.96
49785;BMP280;35679;38.732;-121.358;2023-05-10T05:38:46;101040.47;;;20.94
49785;BMP280;35679;38.732;-121.358;2023-05-10T05:41:35;101032.66;;;20.92
49785;BMP280;35679;38.732;-121.358;2023-05-10T05:44:24;101023.19;;;20.90
49785;BMP280;35679;38.732;-121.358;2023-05-10T05:47:14;101017.03;;;20.89
49785;BMP280;35679;38.732;-121.358;2023-05-10T05:50:03;101013.13;;;20.85
49785;BMP280;35679;38.732;-121.358;2023-05-10T05:52:53;101004.28;;;20.85
49785;BMP280;35679;38.732;-121.358;2023-05-10T05:55:56;101005.31;;;20.84
49785;BMP280;35679;38.732;-121.358;2023-05-10T05:58:46;100999.38;;;20.82
49785;BMP280;35679;38.732;-121.358;2023-05-10T06:01:36;100995.06;;;20.81
49785;BMP280;35679;38.732;-121.358;2023-05-10T06:04:25;100996.91;;;20.80
49785;BMP280;35679;38.732;-121.358;2023-05-10T06:07:15;100994.44;;;20.79
49785;BMP280;35679;38.732;-121.358;2023-05-10T06:10:04;101005.41;;;20.77
49785;BMP280;35679;38.732;-121.358;2023-05-10T06:12:54;101022.78;;;20.75
49785;BMP280;35679;38.732;-121.358;2023-05-10T06:15:43;101023.81;;;20.74
49785;BMP280;35679;38.732;-121.358;2023-05-10T06:18:33;101022.84;;;20.68
49785;BMP280;35679;38.732;-121.358;2023-05-10T06:21:23;101025.72;;;20.67
49785;BMP280;35679;38.732;-121.358;2023-05-10T06:24:12;101035.25;;;20.63
49785;BMP280;35679;38.732;-121.358;2023-05-10T06:27:02;101026.03;;;20.59
49785;BMP280;35679;38.732;-121.358;2023-05-10T06:29:52;101018.78;;;20.59
49785;BMP280;35679;38.732;-121.358;2023-05-10T06:32:56;101018.66;;;20.54
49785;BMP280;35679;38.732;-121.358;2023-05-10T06:35:45;101020.53;;;20.54
49785;BMP280;35679;38.732;-121.358;2023-05-10T06:38:35;101033.09;;;20.53
49785;BMP280;35679;38.732;-121.358;2023-05-10T06:41:24;101025.28;;;20.52
49785;BMP280;35679;38.732;-121.358;2023-05-10T06:44:13;101032.50;;;20.51
49785;BMP280;35679;38.732;-121.358;2023-05-10T06:47:03;101037.03;;;20.51
49785;BMP280;35679;38.732;-121.358;2023-05-10T06:49:53;101040.19;;;20.48
49785;BMP280;35679;38.732;-121.358;2023-05-10T06:52:42;101041.44;;;20.45
49785;BMP280;35679;38.732;-121.358;2023-05-10T06:55:32;101039.22;;;20.42
49785;BMP280;35679;38.732;-121.358;2023-05-10T06:58:21;101050.13;;;20.41
49785;BMP280;35679;38.732;-121.358;2023-05-10T07:01:11;101047.69;;;20.40
49785;BMP280;35679;38.732;-121.358;2023-05-10T07:04:00;101045.47;;;20.37
49785;BMP280;35679;38.732;-121.358;2023-05-10T07:06:49;101052.91;;;20.35
49785;BMP280;35679;38.732;-121.358;2023-05-10T07:09:39;101055.81;;;20.33
49785;BMP280;35679;38.732;-121.358;2023-05-10T07:12:28;101059.53;;;20.32
49785;BMP280;35679;38.732;-121.358;2023-05-10T07:15:18;101054.38;;;20.31
49785;BMP280;35679;38.732;-121.358;2023-05-10T07:18:08;101061.00;;;20.28
49785;BMP280;35679;38.732;-121.358;2023-05-10T07:20:57;101058.34;;;20.28
49785;BMP280;35679;38.732;-121.358;2023-05-10T07:23:47;101054.25;;;20.26
49785;BMP280;35679;38.732;-121.358;2023-05-10T07:26:36;101061.88;;;20.22
49785;BMP280;35679;38.732;-121.358;2023-05-10T07:29:26;101057.56;;;20.21
49785;BMP280;35679;38.732;-121.358;2023-05-10T07:32:15;101048.09;;;20.19
49785;BMP280;35679;38.732;-121.358;2023-05-10T07:35:05;101054.72;;;20.16
49785;BMP280;35679;38.732;-121.358;2023-05-10T07:37:55;101046.91;;;20.15
49785;BMP280;35679;38.732;-121.358;2023-05-10T07:40:44;101051.91;;;20.11
49785;BMP280;35679;38.732;-121.358;2023-05-10T07:43:34;101054.56;;;20.11
49785;BMP280;35679;38.732;-121.358;2023-05-10T07:46:23;101056.66;;;20.09
49785;BMP280;35679;38.732;-121.358;2023-05-10T07:49:13;101052.34;;;20.08
49785;BMP280;35679;38.732;-121.358;2023-05-10T07:52:03;101053.16;;;20.09
49785;BMP280;35679;38.732;-121.358;2023-05-10T07:54:52;101052.53;;;20.07
49785;BMP280;35679;38.732;-121.358;2023-05-10T07:57:42;101049.50;;;20.03
49785;BMP280;35679;38.732;-121.358;2023-05-10T08:00:31;101056.94;;;20.01
49785;BMP280;35679;38.732;-121.358;2023-05-10T08:03:20;101050.53;;;20.02
49785;BMP280;35679;38.732;-121.358;2023-05-10T08:06:10;101052.03;;;19.98
49785;BMP280;35679;38.732;-121.358;2023-05-10T08:08:59;101058.41;;;19.97
49785;BMP280;35679;38.732;-121.358;2023-05-10T08:11:49;101057.81;;;19.95
49785;BMP280;35679;38.732;-121.358;2023-05-10T08:14:39;101056.38;;;19.93
49785;BMP280;35679;38.732;-121.358;2023-05-10T08:17:28;101060.50;;;19.89
49785;BMP280;35679;38.732;-121.358;2023-05-10T08:20:18;101059.09;;;19.86
49785;BMP280;35679;38.732;-121.358;2023-05-10T08:23:07;101061.78;;;19.86
49785;BMP280;35679;38.732;-121.358;2023-05-10T08:25:57;101052.47;;;19.89
49785;BMP280;35679;38.732;-121.358;2023-05-10T08:28:46;101050.03;;;19.87
49785;BMP280;35679;38.732;-121.358;2023-05-10T08:31:35;101047.78;;;19.84
49785;BMP280;35679;38.732;-121.358;2023-05-10T08:34:24;101048.22;;;19.81
49785;BMP280;35679;38.732;-121.358;2023-05-10T08:37:14;101046.81;;;19.79
49785;BMP280;35679;38.732;-121.358;2023-05-10T08:40:04;101055.06;;;19.77
49785;BMP280;35679;38.732;-121.358;2023-05-10T08:43:06;101049.09;;;19.75
49785;BMP280;35679;38.732;-121.358;2023-05-10T08:45:56;101052.00;;;19.74
49785;BMP280;35679;38.732;-121.358;2023-05-10T08:48:48;101050.34;;;19.73
49785;BMP280;35679;38.732;-121.358;2023-05-10T08:51:40;101040.91;;;19.71
49785;BMP280;35679;38.732;-121.358;2023-05-10T08:54:33;101034.72;;;19.70
49785;BMP280;35679;38.732;-121.358;2023-05-10T08:57:23;101035.16;;;19.67
49785;BMP280;35679;38.732;-121.358;2023-05-10T09:00:13;101031.66;;;19.67
49785;BMP280;35679;38.732;-121.358;2023-05-10T09:03:04;101037.03;;;19.67
49785;BMP280;35679;38.732;-121.358;2023-05-10T09:05:55;101043.63;;;19.64
49785;BMP280;35679;38.732;-121.358;2023-05-10T09:08:47;101036.00;;;19.61
49785;BMP280;35679;38.732;-121.358;2023-05-10T09:11:36;101039.94;;;19.59
49785;BMP280;35679;38.732;-121.358;2023-05-10T09:14:26;101038.31;;;19.58
49785;BMP280;35679;38.732;-121.358;2023-05-10T09:17:16;101042.03;;;19.57
49785;BMP280;35679;38.732;-121.358;2023-05-10T09:20:06;101042.03;;;19.57
49785;BMP280;35679;38.732;-121.358;2023-05-10T09:22:55;101039.19;;;19.52
49785;BMP280;35679;38.732;-121.358;2023-05-10T09:25:45;101043.72;;;19.51
49785;BMP280;35679;38.732;-121.358;2023-05-10T09:28:53;101047.88;;;19.47
49785;BMP280;35679;38.732;-121.358;2023-05-10T09:31:50;101054.03;;;19.48
49785;BMP280;35679;38.732;-121.358;2023-05-10T09:34:40;101062.88;;;19.48
49785;BMP280;35679;38.732;-121.358;2023-05-10T09:37:29;101059.81;;;19.45
49785;BMP280;35679;38.732;-121.358;2023-05-10T09:40:21;101060.84;;;19.44
49785;BMP280;35679;38.732;-121.358;2023-05-10T09:43:10;101053.28;;;19.41
49785;BMP280;35679;38.732;-121.358;2023-05-10T09:46:08;101060.47;;;19.40
49785;BMP280;35679;38.732;-121.358;2023-05-10T09:48:59;101052.25;;;19.42
49785;BMP280;35679;38.732;-121.358;2023-05-10T09:52:02;101053.47;;;19.39
49785;BMP280;35679;38.732;-121.358;2023-05-10T09:54:53;101052.03;;;19.37
49785;BMP280;35679;38.732;-121.358;2023-05-10T09:57:43;101058.84;;;19.33
49785;BMP280;35679;38.732;-121.358;2023-05-10T10:00:37;101048.16;;;19.33
49785;BMP280;35679;38.732;-121.358;2023-05-10T10:03:26;101054.53;;;19.32
49785;BMP280;35679;38.732;-121.358;2023-05-10T10:06:19;101053.13;;;19.29
49785;BMP280;35679;38.732;-121.358;2023-05-10T10:09:17;101061.97;;;19.30
49785;BMP280;35679;38.732;-121.358;2023-05-10T10:12:07;101050.06;;;19.26
49785;BMP280;35679;38.732;-121.358;2023-05-10T10:14:59;101053.78;;;19.25
49785;BMP280;35679;38.732;-121.358;2023-05-10T10:17:51;101055.84;;;19.23
49785;BMP280;35679;38.732;-121.358;2023-05-10T10:20:41;101052.13;;;19.24
49785;BMP280;35679;38.732;-121.358;2023-05-10T10:23:30;101049.69;;;19.22
49785;BMP280;35679;38.732;-121.358;2023-05-10T10:26:20;101049.06;;;19.20
49785;BMP280;35679;38.732;-121.358;2023-05-10T10:35:21;101039.84;;;19.16
49785;BMP280;35679;38.732;-121.358;2023-05-10T10:38:12;101038.41;;;19.14
49785;BMP280;35679;38.732;-121.358;2023-05-10T10:41:07;101033.06;;;19.14
49785;BMP280;35679;38.732;-121.358;2023-05-10T10:47:23;101039.03;;;19.09
49785;BMP280;35679;38.732;-121.358;2023-05-10T10:50:21;101044.78;;;19.07
49785;BMP280;35679;38.732;-121.358;2023-05-10T10:53:11;101037.63;;;19.07
49785;BMP280;35679;38.732;-121.358;2023-05-10T10:58:59;101039.66;;;19.05
49785;BMP280;35679;38.732;-121.358;2023-05-10T11:01:51;101047.06;;;19.03
49785;BMP280;35679;38.732;-121.358;2023-05-10T11:04:42;101042.53;;;19.04
49785;BMP280;35679;38.732;-121.358;2023-05-10T11:07:32;101046.88;;;18.98
49785;BMP280;35679;38.732;-121.358;2023-05-10T11:10:23;101043.19;;;18.99
49785;BMP280;35679;38.732;-121.358;2023-05-10T11:13:12;101043.19;;;18.99
49785;BMP280;35679;38.732;-121.358;2023-05-10T11:19:07;101057.19;;;18.95
49785;BMP280;35679;38.732;-121.358;2023-05-10T11:24:58;101070.78;;;18.93
49785;BMP280;35679;38.732;-121.358;2023-05-10T11:27:48;101066.66;;;18.91
49785;BMP280;35679;38.732;-121.358;2023-05-10T11:30:42;101071.19;;;18.90
49785;BMP280;35679;38.732;-121.358;2023-05-10T11:33:45;101074.91;;;18.89
49785;BMP280;35679;38.732;-121.358;2023-05-10T11:36:36;101072.66;;;18.86
49785;BMP280;35679;38.732;-121.358;2023-05-10T11:39:26;101067.28;;;18.86
49785;BMP280;35679;38.732;-121.358;2023-05-10T11:42:16;101073.66;;;18.85
49785;BMP280;35679;38.732;-121.358;2023-05-10T11:45:06;101066.72;;;18.84
49785;BMP280;35679;38.732;-121.358;2023-05-10T11:47:57;101077.41;;;18.84
49785;BMP280;35679;38.732;-121.358;2023-05-10T11:50:46;101074.91;;;18.83
49785;BMP280;35679;38.732;-121.358;2023-05-10T11:53:36;101067.97;;;18.82
49785;BMP280;35679;38.732;-121.358;2023-05-10T11:56:25;101078.84;;;18.80
49785;BMP280;35679;38.732;-121.358;2023-05-10T11:59:15;101075.13;;;18.81
49785;BMP280;35679;38.732;-121.358;2023-05-10T12:02:04;101081.50;;;18.80
49785;BMP280;35679;38.732;-121.358;2023-05-10T12:04:55;101086.47;;;18.77
49785;BMP280;35679;38.732;-121.358;2023-05-10T12:07:45;101092.84;;;18.76
49785;BMP280;35679;38.732;-121.358;2023-05-10T12:10:34;101086.66;;;18.75
49785;BMP280;35679;38.732;-121.358;2023-05-10T12:13:24;101101.28;;;18.73
49785;BMP280;35679;38.732;-121.358;2023-05-10T12:16:17;101095.13;;;18.72
49785;BMP280;35679;38.732;-121.358;2023-05-10T12:19:07;101094.50;;;18.70
49785;BMP280;35679;38.732;-121.358;2023-05-10T12:21:56;101103.34;;;18.71
49785;BMP280;35679;38.732;-121.358;2023-05-10T12:24:45;101101.09;;;18.68
49785;BMP280;35679;38.732;-121.358;2023-05-10T12:27:35;101098.41;;;18.68
49785;BMP280;35679;38.732;-121.358;2023-05-10T12:30:28;101103.34;;;18.64
49785;BMP280;35679;38.732;-121.358;2023-05-10T12:33:18;101100.09;;;18.62
49785;BMP280;35679;38.732;-121.358;2023-05-10T12:36:07;101104.41;;;18.63
49785;BMP280;35679;38.732;-121.358;2023-05-10T12:39:03;101098.44;;;18.61
49785;BMP280;35679;38.732;-121.358;2023-05-10T12:41:52;101103.16;;;18.59
49785;BMP280;35679;38.732;-121.358;2023-05-10T12:44:42;101109.56;;;18.58
49785;BMP280;35679;38.732;-121.358;2023-05-10T12:47:34;101113.47;;;18.56
49785;BMP280;35679;38.732;-121.358;2023-05-10T12:50:24;101111.81;;;18.55
49785;BMP280;35679;38.732;-121.358;2023-05-10T12:53:14;101109.97;;;18.55
49785;BMP280;35679;38.732;-121.358;2023-05-10T12:56:07;101115.31;;;18.55
49785;BMP280;35679;38.732;-121.358;2023-05-10T12:58:56;101114.09;;;18.51
49785;BMP280;35679;38.732;-121.358;2023-05-10T13:01:45;101122.09;;;18.51
49785;BMP280;35679;38.732;-121.358;2023-05-10T13:04:35;101120.44;;;18.50
49785;BMP280;35679;38.732;-121.358;2023-05-10T13:07:26;101126.22;;;18.47
49785;BMP280;35679;38.732;-121.358;2023-05-10T13:10:16;101134.25;;;18.47
49785;BMP280;35679;38.732;-121.358;2023-05-10T13:13:06;101138.75;;;18.47
49785;BMP280;35679;38.732;-121.358;2023-05-10T13:15:56;101141.63;;;18.45
49785;BMP280;35679;38.732;-121.358;2023-05-10T13:18:45;101147.59;;;18.47
49785;BMP280;35679;38.732;-121.358;2023-05-10T13:21:34;101154.38;;;18.43
49785;BMP280;35679;38.732;-121.358;2023-05-10T13:24:24;101154.38;;;18.43
49785;BMP280;35679;38.732;-121.358;2023-05-10T13:27:13;101158.09;;;18.42
49785;BMP280;35679;38.732;-121.358;2023-05-10T13:30:03;101161.78;;;18.42
49785;BMP280;35679;38.732;-121.358;2023-05-10T13:32:53;101167.13;;;18.42
49785;BMP280;35679;38.732;-121.358;2023-05-10T13:35:42;101170.03;;;18.40
49785;BMP280;35679;38.732;-121.358;2023-05-10T13:38:32;101171.84;;;18.40
49785;BMP280;35679;38.732;-121.358;2023-05-10T13:41:21;101171.63;;;18.41
49785;BMP280;35679;38.732;-121.358;2023-05-10T13:44:12;101179.88;;;18.40
49785;BMP280;35679;38.732;-121.358;2023-05-10T13:47:02;101176.38;;;18.39
49785;BMP280;35679;38.732;-121.358;2023-05-10T13:49:52;101177.19;;;18.40
49785;BMP280;35679;38.732;-121.358;2023-05-10T13:52:42;101184.63;;;18.38
49785;BMP280;35679;38.732;-121.358;2023-05-10T13:55:31;101186.44;;;18.37
49785;BMP280;35679;38.732;-121.358;2023-05-10T13:58:20;101186.44;;;18.37
49785;BMP280;35679;38.732;-121.358;2023-05-10T14:01:10;101197.34;;;18.36
49785;BMP280;35679;38.732;-121.358;2023-05-10T14:04:00;101193.03;;;18.35
49785;BMP280;35679;38.732;-121.358;2023-05-10T14:06:50;101205.56;;;18.34
49785;BMP280;35679;38.732;-121.358;2023-05-10T14:09:41;101198.56;;;18.33
49785;BMP280;35679;38.732;-121.358;2023-05-10T14:12:30;101202.06;;;18.34
49785;BMP280;35679;38.732;-121.358;2023-05-10T14:15:20;101206.59;;;18.33
49785;BMP280;35679;38.732;-121.358;2023-05-10T14:18:09;101207.63;;;18.32
49785;BMP280;35679;38.732;-121.358;2023-05-10T14:20:59;101206.59;;;18.33
49785;BMP280;35679;38.732;-121.358;2023-05-10T14:23:48;101210.06;;;18.34
49785;BMP280;35679;38.732;-121.358;2023-05-10T14:26:37;101214.81;;;18.38
49785;BMP280;35679;38.732;-121.358;2023-05-10T14:29:26;101217.69;;;18.37
49785;BMP280;35679;38.732;-121.358;2023-05-10T14:32:16;101213.38;;;18.36
49785;BMP280;35679;38.732;-121.358;2023-05-10T14:35:06;101220.56;;;18.35
49785;BMP280;35679;38.732;-121.358;2023-05-10T14:37:59;101215.41;;;18.34
49785;BMP280;35679;38.732;-121.358;2023-05-10T14:40:49;101223.03;;;18.30
49785;BMP280;35679;38.732;-121.358;2023-05-10T14:43:38;101225.91;;;18.29
49785;BMP280;35679;38.732;-121.358;2023-05-10T14:46:27;101221.41;;;18.29
49785;BMP280;35679;38.732;-121.358;2023-05-10T14:49:18;101233.72;;;18.30
49785;BMP280;35679;38.732;-121.358;2023-05-10T14:52:08;101229.63;;;18.28
49785;BMP280;35679;38.732;-121.358;2023-05-10T14:54:57;101236.56;;;18.29
49785;BMP280;35679;38.732;-121.358;2023-05-10T14:57:47;101238.66;;;18.27
49785;BMP280;35679;38.732;-121.358;2023-05-10T15:00:38;101246.66;;;18.27
49785;BMP280;35679;38.732;-121.358;2023-05-10T15:03:29;101242.97;;;18.28
49785;BMP280;35679;38.732;-121.358;2023-05-10T15:06:23;101240.31;;;18.28
49785;BMP280;35679;38.732;-121.358;2023-05-10T15:09:16;101238.66;;;18.27
49785;BMP280;35679;38.732;-121.358;2023-05-10T15:12:05;101249.13;;;18.28
49785;BMP280;35679;38.732;-121.358;2023-05-10T15:14:55;101252.59;;;18.29
49785;BMP280;35679;38.732;-121.358;2023-05-10T15:17:44;101260.84;;;18.27
49785;BMP280;35679;38.732;-121.358;2023-05-10T15:20:35;101257.16;;;18.28
49785;BMP280;35679;38.732;-121.358;2023-05-10T15:23:24;101265.97;;;18.29
49785;BMP280;35679;38.732;-121.358;2023-05-10T15:26:13;101262.28;;;18.30
49785;BMP280;35679;38.732;-121.358;2023-05-10T15:29:03;101262.47;;;18.35
49785;BMP280;35679;38.732;-121.358;2023-05-10T15:31:52;101255.50;;;18.34
49785;BMP280;35679;38.732;-121.358;2023-05-10T15:34:41;101266.19;;;18.34
49785;BMP280;35679;38.732;-121.358;2023-05-10T15:37:31;101271.53;;;18.34
49785;BMP280;35679;38.732;-121.358;2023-05-10T15:40:20;101279.34;;;18.35
49785;BMP280;35679;38.732;-121.358;2023-05-10T15:43:10;101274.00;;;18.35
49785;BMP280;35679;38.732;-121.358;2023-05-10T15:45:59;101278.94;;;18.32
49785;BMP280;35679;38.732;-121.358;2023-05-10T15:48:48;101269.06;;;18.32
49785;BMP280;35679;38.732;-121.358;2023-05-10T15:51:37;101277.91;;;18.33
49785;BMP280;35679;38.732;-121.358;2023-05-10T15:54:27;101284.69;;;18.35
49785;BMP280;35679;38.732;-121.358;2023-05-10T15:57:16;101286.75;;;18.33
49785;BMP280;35679;38.732;-121.358;2023-05-10T16:00:08;101289.84;;;18.37